Chitral Weather



Chitral's Current Weather

Temprature -1.26o overcast clouds

overcast clouds

Rain: 0 %

Min Temprature-1.26o
Max Temprature-1.26o
Humidity86
Wind Speed1.99 m/h
Sun Rise06:21:21
Sun Set17:34:32
Current Time: 18-Oct-2019 16:25:25
Lat/Lon: 35.85, 71.79




Chitral's Geo Location



Chitral's Weather Forecast

Time Overall Temp Min Temp Max Temp Humidity Wind Speed Rain
18-Oct-2019 (Fri)
17:00:00 light snow -1.270 -1.270 -1.260 86 1.99 m/h 0 %
20:00:00 light snow -2.240 -2.240 -2.230 91 0.45 m/h 0 %
23:00:00 overcast clouds -2.890 -2.890 -2.882 89 0.33 m/h 0 %
19-Oct-2019 (Sat)
02:00:00 broken clouds -3.380 -3.382 -3.380 89 0.57 m/h 0 %
05:00:00 light snow -3.847 -3.847 -3.847 88 0.72 m/h 0 %
08:00:00 overcast clouds -2.889 -2.889 -2.889 78 0.5 m/h 0 %
11:00:00 overcast clouds -0.650 -0.650 -0.650 63 1.81 m/h 0 %
14:00:00 light snow 1.046 1.046 1.046 53 2.05 m/h 0 %
17:00:00 light snow 0.422 0.422 0.422 58 1.1 m/h 0 %
20:00:00 few clouds -1.412 -1.412 -1.412 66 1.86 m/h 0 %
23:00:00 scattered clouds -1.873 -1.873 -1.873 69 2.14 m/h 0 %
20-Oct-2019 (Sun)
02:00:00 clear sky -2.113 -2.113 -2.113 65 1.84 m/h 0 %
05:00:00 clear sky -2.656 -2.656 -2.656 54 2.01 m/h 0 %
08:00:00 clear sky -1.198 -1.198 -1.198 36 1.4 m/h 0 %
11:00:00 clear sky 1.430 1.430 1.430 26 1.22 m/h 0 %
14:00:00 broken clouds 2.712 2.712 2.712 24 0.75 m/h 0 %
17:00:00 broken clouds 1.718 1.718 1.718 39 0.84 m/h 0 %
20:00:00 overcast clouds -0.688 -0.688 -0.688 50 1.05 m/h 0 %
23:00:00 overcast clouds -1.223 -1.223 -1.223 49 0.92 m/h 0 %
21-Oct-2019 (Mon)
02:00:00 scattered clouds -1.880 -1.880 -1.880 46 0.93 m/h 0 %
05:00:00 scattered clouds -2.569 -2.569 -2.569 43 1.49 m/h 0 %
08:00:00 clear sky -1.421 -1.421 -1.421 36 1.15 m/h 0 %
11:00:00 clear sky 1.047 1.047 1.047 32 1.74 m/h 0 %
14:00:00 scattered clouds 2.095 2.095 2.095 37 2.03 m/h 0 %
17:00:00 light snow 0.924 0.924 0.924 48 0.53 m/h 0 %
20:00:00 light snow -0.816 -0.816 -0.816 60 2.49 m/h 0 %
23:00:00 light snow -1.860 -1.860 -1.860 63 2.1 m/h 0 %
22-Oct-2019 (Tue)
02:00:00 scattered clouds -2.364 -2.364 -2.364 61 1.81 m/h 0 %
05:00:00 scattered clouds -2.721 -2.721 -2.721 60 1.3 m/h 0 %
08:00:00 scattered clouds -1.928 -1.928 -1.928 52 0.53 m/h 0 %
11:00:00 scattered clouds 0.389 0.389 0.389 50 2.28 m/h 0 %
14:00:00 light snow 0.779 0.779 0.779 59 2.96 m/h 0 %
17:00:00 light snow -1.028 -1.028 -1.028 76 1.71 m/h 0 %
20:00:00 snow -2.450 -2.450 -2.450 95 2.36 m/h 0 %
23:00:00 snow -3.361 -3.361 -3.361 96 1.22 m/h 0 %
23-Oct-2019 (Wed)
02:00:00 snow -4.204 -4.204 -4.204 96 0.93 m/h 0 %
05:00:00 snow -5.783 -5.783 -5.783 91 2.12 m/h 0 %
08:00:00 light snow -5.731 -5.731 -5.731 81 2.19 m/h 0 %
11:00:00 light snow -3.375 -3.375 -3.375 70 0.79 m/h 0 %
14:00:00 light snow -2.101 -2.101 -2.101 78 1.95 m/h 0 %

Famous Cities (61)